createdAt,value
2023-02-11T00:01:26.827Z,46.33
2023-02-11T00:03:54.962Z,49.23
2023-02-11T00:06:23.764Z,49.47
2023-02-11T00:08:51.710Z,45.33
2023-02-11T00:11:22.101Z,47.47
2023-02-11T00:13:50.281Z,46.30
2023-02-11T00:16:21.726Z,48.37
2023-02-11T00:18:50.359Z,47.33
2023-02-11T00:21:20.983Z,46.47
2023-02-11T00:23:48.974Z,47.57
2023-02-11T00:26:18.672Z,48.93
2023-02-11T00:28:47.178Z,45.47
2023-02-11T00:31:16.421Z,42.37
2023-02-11T00:33:46.159Z,45.60
2023-02-11T00:36:16.010Z,46.30
2023-02-11T00:38:44.924Z,43.20
2023-02-11T00:41:13.366Z,46.03
2023-02-11T00:43:41.490Z,51.87
2023-02-11T00:46:09.777Z,42.17
2023-02-11T00:48:37.877Z,43.00
2023-02-11T00:51:07.707Z,45.93
2023-02-11T00:53:36.281Z,42.83
2023-02-11T00:56:04.980Z,45.30
2023-02-11T00:58:32.842Z,46.60
2023-02-11T01:01:00.976Z,46.97
2023-02-11T01:03:28.854Z,46.53
2023-02-11T01:05:56.885Z,43.27
2023-02-11T01:08:26.291Z,47.43
2023-02-11T01:10:58.804Z,49.00
2023-02-11T01:13:27.467Z,46.13
2023-02-11T01:15:55.665Z,48.00
2023-02-11T01:18:23.596Z,46.77
2023-02-11T01:20:52.259Z,48.90
2023-02-11T01:23:20.445Z,46.37
2023-02-11T01:25:50.120Z,42.87
2023-02-11T01:28:19.671Z,45.70
2023-02-11T01:30:48.236Z,46.00
2023-02-11T01:33:16.133Z,45.30
2023-02-11T01:35:44.697Z,43.67
2023-02-11T01:38:17.566Z,43.50
2023-02-11T01:40:50.443Z,45.27
2023-02-11T01:43:18.790Z,41.70
2023-02-11T01:46:21.730Z,45.13
2023-02-11T01:48:54.353Z,46.97
2023-02-11T01:51:26.269Z,45.60
2023-02-11T01:54:12.948Z,44.73
2023-02-11T01:57:04.683Z,47.07
2023-02-11T01:59:39.371Z,46.10
2023-02-11T02:02:11.247Z,41.53
2023-02-11T02:04:46.124Z,43.37
2023-02-11T02:07:23.070Z,44.67
2023-02-11T02:09:57.067Z,42.97
2023-02-11T02:12:26.339Z,39.50
2023-02-11T02:15:21.705Z,43.13
2023-02-11T02:18:00.054Z,43.30
2023-02-11T02:21:06.642Z,43.83
2023-02-11T02:23:53.770Z,47.57
2023-02-11T02:26:47.206Z,47.27
2023-02-11T02:29:44.801Z,39.20
2023-02-11T02:32:35.551Z,40.80
2023-02-11T02:35:12.170Z,43.50
2023-02-11T02:37:46.032Z,44.10
2023-02-11T02:40:18.411Z,44.27
2023-02-11T02:42:47.900Z,42.13
2023-02-11T02:45:16.052Z,41.70
2023-02-11T02:47:45.307Z,43.20
2023-02-11T02:50:17.277Z,45.30
2023-02-11T02:52:57.507Z,40.70
2023-02-11T02:55:39.877Z,48.23
2023-02-11T02:58:34.970Z,46.73
2023-02-11T03:01:10.775Z,45.03
2023-02-11T03:03:48.355Z,43.90
2023-02-11T03:06:22.646Z,46.80
2023-02-11T03:08:56.653Z,44.67
2023-02-11T03:11:25.653Z,43.90
2023-02-11T03:13:55.704Z,45.53
2023-02-11T03:16:27.255Z,45.27
2023-02-11T03:19:04.204Z,46.77
2023-02-11T03:21:37.166Z,46.10
2023-02-11T03:24:09.977Z,43.40
2023-02-11T03:26:41.887Z,47.83
2023-02-11T03:29:14.819Z,45.47
2023-02-11T03:31:52.471Z,46.23
2023-02-11T03:34:29.104Z,46.17
2023-02-11T03:37:01.687Z,46.60
2023-02-11T03:39:35.142Z,46.47
2023-02-11T03:42:05.395Z,48.50
2023-02-11T03:44:37.953Z,44.83
2023-02-11T03:47:08.558Z,46.10
2023-02-11T03:49:40.568Z,45.37
2023-02-11T03:52:11.356Z,46.30
2023-02-11T03:54:41.983Z,45.70
2023-02-11T03:57:10.119Z,46.13
2023-02-11T03:59:51.704Z,44.40
2023-02-11T04:02:20.244Z,47.17
2023-02-11T04:04:49.652Z,44.40
2023-02-11T04:07:17.658Z,44.60
2023-02-11T04:09:45.495Z,42.67
2023-02-11T04:12:13.503Z,44.80
2023-02-11T04:14:41.382Z,44.13
2023-02-11T04:17:09.418Z,43.13
2023-02-11T04:19:37.352Z,47.77
2023-02-11T04:22:06.850Z,44.47
2023-02-11T04:24:34.888Z,47.97
2023-02-11T04:27:02.963Z,45.30
2023-02-11T04:29:30.870Z,45.03
2023-02-11T04:31:59.411Z,46.27
2023-02-11T04:34:27.303Z,48.87
2023-02-11T04:36:55.286Z,43.77
2023-02-11T04:39:24.595Z,44.60
2023-02-11T04:41:52.455Z,44.47
2023-02-11T04:44:20.486Z,44.27
2023-02-11T04:46:48.473Z,47.80
2023-02-11T04:49:17.690Z,48.63
2023-02-11T04:51:48.918Z,50.83
2023-02-11T04:54:17.477Z,46.93
2023-02-11T04:56:46.907Z,48.37
2023-02-11T04:59:14.848Z,46.23
2023-02-11T05:01:43.022Z,44.83
2023-02-11T05:04:10.921Z,49.57
2023-02-11T05:06:39.721Z,48.73
2023-02-11T05:09:07.658Z,52.83
2023-02-11T05:11:36.687Z,55.33
2023-02-11T05:14:06.456Z,53.77
2023-02-11T05:16:34.909Z,55.00
2023-02-11T05:19:02.834Z,54.03
2023-02-11T05:21:30.754Z,50.87
2023-02-11T05:23:58.713Z,48.37
2023-02-11T05:26:26.777Z,48.23
2023-02-11T05:28:54.642Z,49.63
2023-02-11T05:31:24.164Z,46.77
2023-02-11T05:33:52.157Z,51.53
2023-02-11T05:36:20.036Z,52.63
2023-02-11T05:38:47.890Z,52.47
2023-02-11T05:41:15.721Z,51.47
2023-02-11T05:43:43.739Z,50.27
2023-02-11T05:46:11.620Z,48.77
2023-02-11T05:48:40.890Z,49.80
2023-02-11T05:51:08.745Z,45.83
2023-02-11T05:53:36.665Z,51.53
2023-02-11T05:56:04.792Z,51.87
2023-02-11T05:58:33.857Z,50.30
2023-02-11T06:01:01.695Z,47.67
2023-02-11T06:03:29.607Z,49.20
2023-02-11T06:05:58.919Z,46.40
2023-02-11T06:08:26.765Z,49.10
2023-02-11T06:10:54.590Z,47.73
2023-02-11T06:13:22.459Z,47.93
2023-02-11T06:15:57.306Z,50.13
2023-02-11T06:18:25.403Z,46.87
2023-02-11T06:20:53.561Z,47.03
2023-02-11T06:23:23.072Z,46.37
2023-02-11T06:25:51.493Z,47.27
2023-02-11T06:28:19.998Z,46.73
2023-02-11T06:30:47.977Z,46.63
2023-02-11T06:33:16.575Z,47.43
2023-02-11T06:35:44.423Z,44.90
2023-02-11T06:38:12.262Z,49.50
2023-02-11T06:40:41.896Z,46.57
2023-02-11T06:43:09.751Z,48.33
2023-02-11T06:45:37.593Z,51.70
2023-02-11T06:48:05.697Z,48.70
2023-02-11T06:50:36.589Z,47.13
2023-02-11T06:53:04.433Z,43.97
2023-02-11T06:55:32.545Z,44.20
2023-02-11T06:58:01.784Z,46.20
2023-02-11T07:00:30.152Z,43.60
2023-02-11T07:02:58.238Z,44.57
2023-02-11T07:05:26.068Z,46.27
2023-02-11T07:07:54.094Z,42.70
2023-02-11T07:10:21.965Z,42.20
2023-02-11T07:12:49.875Z,44.07
2023-02-11T07:15:19.487Z,42.73
2023-02-11T07:17:47.366Z,44.80
2023-02-11T07:20:15.726Z,44.47
2023-02-11T07:22:43.599Z,41.63
2023-02-11T07:25:11.462Z,44.57
2023-02-11T07:27:39.331Z,45.43
2023-02-11T07:30:07.882Z,45.47
2023-02-11T07:32:37.159Z,39.77
2023-02-11T07:35:05.972Z,44.20
2023-02-11T07:37:34.889Z,40.60
2023-02-11T07:40:03.082Z,44.70
2023-02-11T07:42:30.949Z,41.37
2023-02-11T07:44:58.813Z,43.03
2023-02-11T07:47:28.474Z,46.20
2023-02-11T07:49:57.672Z,45.93
2023-02-11T07:52:25.495Z,47.30
2023-02-11T07:54:53.370Z,44.27
2023-02-11T07:57:21.195Z,42.97
2023-02-11T07:59:49.079Z,43.87
2023-02-11T08:02:16.975Z,42.53
2023-02-11T08:04:46.997Z,42.73
2023-02-11T08:07:17.855Z,43.13
2023-02-11T08:09:46.233Z,41.00
2023-02-11T08:12:14.117Z,43.10
2023-02-11T08:14:41.986Z,40.23
2023-02-11T08:17:09.805Z,40.17
2023-02-11T08:19:37.630Z,46.13
2023-02-11T08:22:05.546Z,40.27
2023-02-11T08:24:34.770Z,41.47
2023-02-11T08:27:02.621Z,37.93
2023-02-11T08:29:30.883Z,40.17
2023-02-11T08:31:58.839Z,38.13
2023-02-11T08:34:26.734Z,38.13
2023-02-11T08:36:55.034Z,36.53
2023-02-11T08:39:23.781Z,36.73
2023-02-11T08:41:54.826Z,37.47
2023-02-11T08:44:23.384Z,39.03
2023-02-11T08:46:51.929Z,38.47
2023-02-11T08:49:20.331Z,36.70
2023-02-11T08:51:49.291Z,40.27
2023-02-11T08:54:17.318Z,40.63
2023-02-11T08:56:45.360Z,38.27
2023-02-11T08:59:17.893Z,39.33
2023-02-11T09:01:47.163Z,43.37
2023-02-11T09:04:15.481Z,41.47
2023-02-11T09:06:43.377Z,39.40
2023-02-11T09:09:13.531Z,41.13
2023-02-11T09:11:42.876Z,39.87
2023-02-11T09:14:20.344Z,37.73
2023-02-11T09:16:48.547Z,38.23
2023-02-11T09:19:16.715Z,40.17
2023-02-11T09:21:44.762Z,37.80
2023-02-11T09:24:13.217Z,40.37
2023-02-11T09:26:43.023Z,40.90
2023-02-11T09:29:10.891Z,39.77
2023-02-11T09:31:40.364Z,40.87
2023-02-11T09:34:08.363Z,39.87
2023-02-11T09:36:38.727Z,42.80
2023-02-11T09:39:08.357Z,40.83
2023-02-11T09:41:50.442Z,38.23
2023-02-11T09:44:21.336Z,43.47
2023-02-11T09:46:56.578Z,43.93
2023-02-11T09:49:30.575Z,39.37
2023-02-11T09:52:04.419Z,37.60
2023-02-11T09:54:38.057Z,40.63
2023-02-11T09:57:23.020Z,39.03
2023-02-11T09:59:56.495Z,37.83
2023-02-11T10:02:35.380Z,36.00
2023-02-11T10:05:22.807Z,37.30
2023-02-11T10:07:59.853Z,37.63
2023-02-11T10:10:42.093Z,40.50
2023-02-11T10:13:45.565Z,39.70
2023-02-11T10:16:27.051Z,38.10
2023-02-11T10:19:15.564Z,38.07
2023-02-11T10:21:55.175Z,36.90
2023-02-11T10:24:23.370Z,35.90
2023-02-11T10:26:52.984Z,35.40
2023-02-11T10:29:36.697Z,35.40
2023-02-11T10:32:14.513Z,39.30
2023-02-11T10:34:43.875Z,36.87
2023-02-11T10:37:14.693Z,33.73
2023-02-11T10:39:42.706Z,38.10
2023-02-11T10:42:15.028Z,36.07
2023-02-11T10:44:47.692Z,34.93
2023-02-11T10:47:22.164Z,35.10
2023-02-11T10:49:51.386Z,37.90
2023-02-11T10:52:24.907Z,39.20
2023-02-11T10:55:01.621Z,37.87
2023-02-11T10:57:34.375Z,34.47
2023-02-11T11:00:07.495Z,37.67
2023-02-11T11:02:38.946Z,38.30
2023-02-11T11:05:17.821Z,33.37
2023-02-11T11:07:55.688Z,36.67
2023-02-11T11:10:30.638Z,40.47
2023-02-11T11:12:58.538Z,37.23
2023-02-11T11:15:28.401Z,38.03
2023-02-11T11:18:21.482Z,38.70
2023-02-11T11:20:59.819Z,35.77
2023-02-11T11:23:30.192Z,39.67
2023-02-11T11:26:05.142Z,39.60
2023-02-11T11:28:38.848Z,36.57
2023-02-11T11:31:13.374Z,37.80
2023-02-11T11:33:44.131Z,36.23
2023-02-11T11:36:16.926Z,32.67
2023-02-11T11:38:49.013Z,38.07
2023-02-11T11:41:19.841Z,33.83
2023-02-11T11:44:02.512Z,32.63
2023-02-11T11:46:34.084Z,35.83
2023-02-11T11:49:16.126Z,37.20
2023-02-11T11:51:52.855Z,37.20
2023-02-11T11:54:21.598Z,37.17
2023-02-11T11:56:55.859Z,38.17
2023-02-11T11:59:23.946Z,37.60
2023-02-11T12:02:28.163Z,38.03
2023-02-11T12:05:03.212Z,36.87
2023-02-11T12:07:55.192Z,36.13
2023-02-11T12:10:44.299Z,35.80
2023-02-11T12:13:23.980Z,36.27
2023-02-11T12:16:02.311Z,34.93
2023-02-11T12:18:50.085Z,33.90
2023-02-11T12:21:30.534Z,35.13
2023-02-11T12:24:11.467Z,33.60
2023-02-11T12:26:46.585Z,33.83
2023-02-11T12:29:24.061Z,34.60
2023-02-11T12:32:08.453Z,32.53
2023-02-11T12:35:08.418Z,36.77
2023-02-11T12:37:48.099Z,33.70
2023-02-11T12:40:24.080Z,32.30
2023-02-11T12:43:17.142Z,32.17
2023-02-11T12:46:10.868Z,32.83
2023-02-11T12:49:04.207Z,32.17
2023-02-11T12:51:46.294Z,34.17
2023-02-11T12:54:29.705Z,34.87
2023-02-11T12:57:04.517Z,33.73
2023-02-11T12:59:44.759Z,36.57
2023-02-11T13:02:20.333Z,36.83
2023-02-11T13:04:53.454Z,34.20
2023-02-11T13:07:28.677Z,36.67
2023-02-11T13:10:02.106Z,34.67
2023-02-11T13:12:52.229Z,47.37
2023-02-11T13:15:20.407Z,36.80
2023-02-11T13:17:57.829Z,34.63
2023-02-11T13:20:39.477Z,37.57
2023-02-11T13:23:15.872Z,36.47
2023-02-11T13:25:51.432Z,34.90
2023-02-11T13:28:32.356Z,38.10
2023-02-11T13:31:03.433Z,38.80
2023-02-11T13:33:39.361Z,34.77
2023-02-11T13:36:22.302Z,33.30
2023-02-11T13:38:55.777Z,37.63
2023-02-11T13:41:27.933Z,34.90
2023-02-11T13:44:03.958Z,36.73
2023-02-11T13:46:57.414Z,34.00
2023-02-11T13:49:30.425Z,36.07
2023-02-11T13:51:59.650Z,35.47
2023-02-11T13:54:32.219Z,34.40
2023-02-11T13:57:32.537Z,33.90
2023-02-11T14:00:02.999Z,31.80
2023-02-11T14:02:51.441Z,33.80
2023-02-11T14:06:17.455Z,35.70
2023-02-11T14:09:01.220Z,35.87
2023-02-11T14:11:51.247Z,32.40
2023-02-11T14:14:23.979Z,34.10
2023-02-11T14:17:31.965Z,34.63
2023-02-11T14:20:00.646Z,32.97
2023-02-11T14:22:31.694Z,31.80
2023-02-11T14:25:01.898Z,33.60
2023-02-11T14:27:34.355Z,32.53
2023-02-11T14:30:24.090Z,34.43
2023-02-11T14:33:07.193Z,34.90
2023-02-11T14:35:42.143Z,34.67
2023-02-11T14:38:20.371Z,35.03
2023-02-11T14:40:55.124Z,32.80
2023-02-11T14:43:29.112Z,34.50
2023-02-11T14:45:59.507Z,37.97
2023-02-11T14:48:32.452Z,35.50
2023-02-11T14:51:04.402Z,32.93
2023-02-11T14:53:34.365Z,33.43
2023-02-11T14:56:02.212Z,35.20
2023-02-11T14:58:32.101Z,32.63
2023-02-11T15:01:01.955Z,34.53
2023-02-11T15:03:39.641Z,34.23
2023-02-11T15:06:16.480Z,33.87
2023-02-11T15:08:48.323Z,30.60
2023-02-11T15:11:19.839Z,34.27
2023-02-11T15:13:49.749Z,33.50
2023-02-11T15:16:21.484Z,35.23
2023-02-11T15:18:53.075Z,32.60
2023-02-11T15:21:23.437Z,33.07
2023-02-11T15:23:59.874Z,32.57
2023-02-11T15:26:28.203Z,36.53
2023-02-11T15:28:56.098Z,35.87
2023-02-11T15:31:25.853Z,32.40
2023-02-11T15:33:55.884Z,33.40
2023-02-11T15:36:34.365Z,35.27
2023-02-11T15:39:19.423Z,33.67
2023-02-11T15:41:47.321Z,37.37
2023-02-11T15:44:29.532Z,33.00
2023-02-11T15:46:58.554Z,35.07
2023-02-11T15:49:28.330Z,33.00
2023-02-11T15:51:58.026Z,33.67
2023-02-11T15:54:29.554Z,34.97
2023-02-11T15:57:04.781Z,33.47
2023-02-11T15:59:38.260Z,34.90
2023-02-11T16:02:15.153Z,35.10
2023-02-11T16:04:50.895Z,32.67
2023-02-11T16:07:40.608Z,33.80
2023-02-11T16:10:19.772Z,30.57
2023-02-11T16:13:03.560Z,34.00
2023-02-11T16:15:53.563Z,34.43
2023-02-11T16:18:38.468Z,35.63
2023-02-11T16:21:16.834Z,33.23
2023-02-11T16:23:52.461Z,32.70
2023-02-11T16:26:28.457Z,31.67
2023-02-11T16:29:05.388Z,34.53
2023-02-11T16:31:35.307Z,33.17
2023-02-11T16:34:03.248Z,33.40
2023-02-11T16:36:32.545Z,32.10
2023-02-11T16:39:00.403Z,39.07
2023-02-11T16:41:28.267Z,38.97
2023-02-11T16:43:58.286Z,36.73
2023-02-11T16:46:27.479Z,35.57
2023-02-11T16:48:55.850Z,34.40
2023-02-11T16:51:23.853Z,33.00
2023-02-11T16:53:53.089Z,36.07
2023-02-11T16:56:21.019Z,32.50
2023-02-11T16:58:48.872Z,35.90
2023-02-11T17:01:17.380Z,36.10
2023-02-11T17:03:45.646Z,36.43
2023-02-11T17:06:14.546Z,34.83
2023-02-11T17:08:42.520Z,33.53
2023-02-11T17:11:11.745Z,33.30
2023-02-11T17:13:41.766Z,37.90
2023-02-11T17:16:18.352Z,35.17
2023-02-11T17:18:46.613Z,34.53
2023-02-11T17:21:14.724Z,34.87
2023-02-11T17:23:43.015Z,33.03
2023-02-11T17:26:12.318Z,34.90
2023-02-11T17:28:40.297Z,32.50
2023-02-11T17:31:09.547Z,35.20
2023-02-11T17:33:38.855Z,31.27
2023-02-11T17:36:07.952Z,33.77
2023-02-11T17:38:36.981Z,31.90
2023-02-11T17:41:05.814Z,35.53
2023-02-11T17:43:35.055Z,34.53
2023-02-11T17:46:06.364Z,33.80
2023-02-11T17:48:34.332Z,34.83
2023-02-11T17:51:02.186Z,35.37
2023-02-11T17:53:30.035Z,37.17
2023-02-11T17:55:58.311Z,35.77
2023-02-11T17:58:26.167Z,32.63
2023-02-11T18:00:59.200Z,33.13
2023-02-11T18:03:27.178Z,30.57
2023-02-11T18:05:55.082Z,30.60
2023-02-11T18:08:22.995Z,27.60
2023-02-11T18:10:50.819Z,26.60
2023-02-11T18:13:18.693Z,26.83
2023-02-11T18:15:46.517Z,26.67
2023-02-11T18:18:18.422Z,42.13
2023-02-11T18:20:47.785Z,45.40
2023-02-11T18:23:15.644Z,40.97
2023-02-11T18:25:44.330Z,45.43
2023-02-11T18:28:12.194Z,45.43
2023-02-11T18:30:40.137Z,45.27
2023-02-11T18:33:11.985Z,42.90
2023-02-11T18:35:41.843Z,42.60
2023-02-11T18:38:10.530Z,41.13
2023-02-11T18:40:40.737Z,39.27
2023-02-11T18:43:08.707Z,38.70
2023-02-11T18:45:36.644Z,37.87
2023-02-11T18:48:05.284Z,31.43
2023-02-11T18:50:33.146Z,34.33
2023-02-11T18:53:02.385Z,36.73
2023-02-11T18:55:30.339Z,37.30
2023-02-11T18:57:58.194Z,33.23
2023-02-11T19:00:26.208Z,33.70
2023-02-11T19:02:54.308Z,35.13
2023-02-11T19:05:22.329Z,38.27
2023-02-11T19:07:50.192Z,39.47
2023-02-11T19:10:19.804Z,35.80
2023-02-11T19:12:47.929Z,37.97
2023-02-11T19:15:15.758Z,39.60
2023-02-11T19:17:43.629Z,35.30
2023-02-11T19:20:12.053Z,35.37
2023-02-11T19:22:39.879Z,38.97
2023-02-11T19:25:08.392Z,36.03
2023-02-11T19:27:37.994Z,35.93
2023-02-11T19:30:06.987Z,31.90
2023-02-11T19:32:35.113Z,27.87
2023-02-11T19:35:03.861Z,29.00
2023-02-11T19:37:31.831Z,27.07
2023-02-11T19:39:59.642Z,26.50
2023-02-11T19:42:27.756Z,27.07
2023-02-11T19:44:57.272Z,24.30
2023-02-11T19:47:27.775Z,28.57
2023-02-11T19:49:56.118Z,27.27
2023-02-11T19:52:24.085Z,23.23
2023-02-11T19:54:52.061Z,26.77
2023-02-11T19:57:19.909Z,25.90
2023-02-11T19:59:47.939Z,26.40
2023-02-11T20:02:17.190Z,26.27
2023-02-11T20:04:46.234Z,28.20
2023-02-11T20:07:14.251Z,27.60
2023-02-11T20:09:42.608Z,25.37
2023-02-11T20:12:12.095Z,26.43
2023-02-11T20:14:39.986Z,27.33
2023-02-11T20:17:07.850Z,27.50
2023-02-11T20:19:37.121Z,27.03
2023-02-11T20:22:04.942Z,24.60
2023-02-11T20:24:32.754Z,26.90
2023-02-11T20:27:00.626Z,27.13
2023-02-11T20:29:31.139Z,24.47
2023-02-11T20:31:59.153Z,25.77
2023-02-11T20:34:27.128Z,28.10
2023-02-11T20:36:56.494Z,25.17
2023-02-11T20:39:25.912Z,24.23
2023-02-11T20:41:54.498Z,26.33
2023-02-11T20:44:22.861Z,26.37
2023-02-11T20:46:53.814Z,25.00
2023-02-11T20:49:24.602Z,25.53
2023-02-11T20:51:53.793Z,27.27
2023-02-11T20:54:24.577Z,27.83
2023-02-11T20:56:53.750Z,28.50
2023-02-11T20:59:22.677Z,28.13
2023-02-11T21:01:53.520Z,25.70
2023-02-11T21:04:23.986Z,39.90
2023-02-11T21:06:54.547Z,47.53
2023-02-11T21:09:26.672Z,43.03
2023-02-11T21:11:55.297Z,42.60
2023-02-11T21:14:25.393Z,42.33
2023-02-11T21:16:53.730Z,44.20
2023-02-11T21:19:21.573Z,45.27
2023-02-11T21:21:50.166Z,43.40
2023-02-11T21:24:18.054Z,46.77
2023-02-11T21:26:47.410Z,43.80
2023-02-11T21:29:15.263Z,43.80
2023-02-11T21:31:43.233Z,44.10
2023-02-11T21:34:11.739Z,41.73
2023-02-11T21:36:39.806Z,40.80
2023-02-11T21:39:08.801Z,41.83
2023-02-11T21:41:36.674Z,41.70
2023-02-11T21:44:05.880Z,46.77
2023-02-11T21:46:33.859Z,45.77
2023-02-11T21:49:01.734Z,46.13
2023-02-11T21:51:29.600Z,41.73
2023-02-11T21:53:59.183Z,38.03
2023-02-11T21:56:28.189Z,38.97
2023-02-11T21:58:58.318Z,39.33
2023-02-11T22:01:29.843Z,42.40
2023-02-11T22:03:58.115Z,38.87
2023-02-11T22:06:30.901Z,42.43
2023-02-11T22:08:58.951Z,40.20
2023-02-11T22:11:26.809Z,37.30
2023-02-11T22:13:56.317Z,42.73
2023-02-11T22:16:24.834Z,42.43
2023-02-11T22:18:54.869Z,44.20
2023-02-11T22:21:23.822Z,38.33
2023-02-11T22:23:52.264Z,37.73
2023-02-11T22:26:21.814Z,40.07
2023-02-11T22:28:50.346Z,37.50
2023-02-11T22:31:20.359Z,33.53
2023-02-11T22:33:49.007Z,34.97
2023-02-11T22:36:22.157Z,35.70
2023-02-11T22:38:50.884Z,37.97
2023-02-11T22:41:19.576Z,42.67
2023-02-11T22:43:47.683Z,36.03
2023-02-11T22:46:18.630Z,39.03
2023-02-11T22:48:46.878Z,37.57
2023-02-11T22:51:17.650Z,40.17
2023-02-11T22:53:50.572Z,38.07
2023-02-11T22:56:19.077Z,38.60
2023-02-11T22:58:46.960Z,39.13
2023-02-11T23:01:15.371Z,34.40
2023-02-11T23:03:43.547Z,37.27
2023-02-11T23:06:12.392Z,39.53
2023-02-11T23:08:42.888Z,44.97
2023-02-11T23:11:14.198Z,42.50
2023-02-11T23:13:43.060Z,43.97
2023-02-11T23:16:13.465Z,42.03
2023-02-11T23:18:43.478Z,39.90
2023-02-11T23:21:13.622Z,41.93
2023-02-11T23:23:41.507Z,40.37
2023-02-11T23:26:13.095Z,42.90
2023-02-11T23:28:41.457Z,42.30
2023-02-11T23:31:18.256Z,39.60
2023-02-11T23:33:47.155Z,38.80
2023-02-11T23:36:16.149Z,40.57
2023-02-11T23:38:44.574Z,41.47
2023-02-11T23:41:15.209Z,37.87
2023-02-11T23:43:43.204Z,40.97
2023-02-11T23:46:11.775Z,40.57
2023-02-11T23:48:40.595Z,39.93
2023-02-11T23:51:10.169Z,41.53
2023-02-11T23:53:38.361Z,37.70
2023-02-11T23:56:10.653Z,36.77
2023-02-11T23:58:39.912Z,37.40
